SCSE/LSC METAR and TAF weather

Enter ICAO airport designator
Station Type Date Time Source
SCSE METAR 2020/09/19 21:00 UTC NOAA

SCSE 192100Z 26007KT 9999 FEW012 OVC017 13/11 Q1016


Station Type Date Time Source
SCSE Decoded METAR 2020/09/19 21:00 UTC NOAA

La Serena, Chile (SCSE) 29-54S 071-12W
Sep 19, 2020 - 05:00 PM EDT / 2020.09.19 2100 UTC
Wind: from the W (260 degrees) at 8 MPH (7 KT):0
Visibility: greater than 7 mile(s):0
Sky conditions: overcast
Temperature: 55 F (13 C)
Dew Point: 51 F (11 C)
Relative Humidity: 87%
Pressure (altimeter): 30.00 in. Hg (1016 hPa)
ob: SCSE 192100Z 26007KT 9999 FEW012 OVC017 13/11 Q1016
cycle: 21

Station Type Date Time Source
SCSE TAF 2020/09/19 18:06 UTC NOAA

TAF COR TAF COR SCSE 191702Z 1918/2018 29008KT 9999 SCT012 BKN015 TX15/1919Z TN11/2011Z
BECMG 2000/2002 30004KT SCT008 BKN012
BECMG 2008/2010 VRB02KT BKN008
TEMPO 2010/2015 00000KT 3000 BR BKN005 OVC008
BECMG 2016/2018 25004KT 8000 SCT008 BKN010

Example: see airport list